createdAt,value
2023-02-09T00:01:05.532Z,23.90
2023-02-09T00:03:34.237Z,23.50
2023-02-09T00:06:03.862Z,24.40
2023-02-09T00:08:32.441Z,24.60
2023-02-09T00:11:00.721Z,24.70
2023-02-09T00:13:28.891Z,23.60
2023-02-09T00:15:57.912Z,23.40
2023-02-09T00:18:26.511Z,23.80
2023-02-09T00:20:58.929Z,23.70
2023-02-09T00:23:28.251Z,24.50
2023-02-09T00:25:59.904Z,24.50
2023-02-09T00:28:28.192Z,23.50
2023-02-09T00:30:56.217Z,23.60
2023-02-09T00:33:24.415Z,24.70
2023-02-09T00:35:52.590Z,23.70
2023-02-09T00:38:20.522Z,23.60
2023-02-09T00:40:49.546Z,23.50
2023-02-09T00:43:17.533Z,23.40
2023-02-09T00:45:46.645Z,23.50
2023-02-09T00:48:15.925Z,23.80
2023-02-09T00:50:44.219Z,24.20
2023-02-09T00:53:12.467Z,23.30
2023-02-09T00:55:42.380Z,23.40
2023-02-09T00:58:10.563Z,24.30
2023-02-09T01:00:38.735Z,24.60
2023-02-09T01:03:06.987Z,22.90
2023-02-09T01:05:38.350Z,23.40
2023-02-09T01:08:06.419Z,24.40
2023-02-09T01:10:34.576Z,23.30
2023-02-09T01:13:02.663Z,23.00
2023-02-09T01:15:30.735Z,22.30
2023-02-09T01:17:59.373Z,23.80
2023-02-09T01:20:27.824Z,24.20
2023-02-09T01:22:55.972Z,23.60
2023-02-09T01:25:24.352Z,23.10
2023-02-09T01:27:52.303Z,22.60
2023-02-09T01:30:20.371Z,23.40
2023-02-09T01:32:48.871Z,22.60
2023-02-09T01:35:17.450Z,23.40
2023-02-09T01:37:45.361Z,23.10
2023-02-09T01:40:15.991Z,22.40
2023-02-09T01:42:43.977Z,22.50
2023-02-09T01:45:15.889Z,24.00
2023-02-09T01:47:47.364Z,22.90
2023-02-09T01:50:15.925Z,23.40
2023-02-09T01:52:45.129Z,23.70
2023-02-09T01:55:15.354Z,23.50
2023-02-09T01:57:46.487Z,22.40
2023-02-09T02:00:16.272Z,22.40
2023-02-09T02:02:48.139Z,23.20
2023-02-09T02:05:16.644Z,24.30
2023-02-09T02:07:44.604Z,24.50
2023-02-09T02:10:13.084Z,25.30
2023-02-09T02:12:43.208Z,25.70
2023-02-09T02:15:12.100Z,25.60
2023-02-09T02:17:49.585Z,26.30
2023-02-09T02:20:28.408Z,27.60
2023-02-09T02:23:11.323Z,27.40
2023-02-09T02:26:00.544Z,27.00
2023-02-09T02:28:28.689Z,27.20
2023-02-09T02:31:19.862Z,28.40
2023-02-09T02:33:57.470Z,28.30
2023-02-09T02:36:33.866Z,29.50
2023-02-09T02:39:22.332Z,29.40
2023-02-09T02:42:22.402Z,29.90
2023-02-09T02:44:56.621Z,29.30
2023-02-09T02:47:25.858Z,29.30
2023-02-09T02:49:56.665Z,30.30
2023-02-09T02:52:24.836Z,30.50
2023-02-09T02:54:57.368Z,30.50
2023-02-09T02:59:57.241Z,30.20
2023-02-09T03:02:28.484Z,30.40
2023-02-09T03:04:58.193Z,29.10
2023-02-09T03:07:26.370Z,29.20
2023-02-09T03:09:56.494Z,29.90
2023-02-09T03:12:30.633Z,29.70
2023-02-09T03:15:18.420Z,29.30
2023-02-09T03:17:55.446Z,30.10
2023-02-09T03:20:33.483Z,31.20
2023-02-09T03:23:02.650Z,29.60
2023-02-09T03:25:33.558Z,29.10
2023-02-09T03:28:05.060Z,30.30
2023-02-09T03:30:33.951Z,30.70
2023-02-09T03:33:03.923Z,30.60
2023-02-09T03:35:36.250Z,29.90
2023-02-09T03:38:07.285Z,30.30
2023-02-09T03:40:35.407Z,30.40
2023-02-09T03:43:03.570Z,31.40
2023-02-09T03:45:31.540Z,31.20
2023-02-09T03:47:59.520Z,29.80
2023-02-09T03:50:30.043Z,30.20
2023-02-09T03:52:58.542Z,30.80
2023-02-09T03:55:26.691Z,29.60
2023-02-09T03:57:54.674Z,30.30
2023-02-09T04:00:22.711Z,30.10
2023-02-09T04:02:50.786Z,30.30
2023-02-09T04:05:19.008Z,31.00
2023-02-09T04:07:47.137Z,31.60
2023-02-09T04:10:15.126Z,30.90
2023-02-09T04:12:43.017Z,31.50
2023-02-09T04:15:11.074Z,30.60
2023-02-09T04:17:39.223Z,31.00
2023-02-09T04:20:07.713Z,31.30
2023-02-09T04:22:35.776Z,31.70
2023-02-09T04:25:03.960Z,32.50
2023-02-09T04:27:32.739Z,33.00
2023-02-09T04:30:00.681Z,34.70
2023-02-09T04:32:28.685Z,33.40
2023-02-09T04:34:56.702Z,33.00
2023-02-09T04:37:24.717Z,31.80
2023-02-09T04:39:52.683Z,33.20
2023-02-09T04:42:20.653Z,33.90
2023-02-09T04:44:48.772Z,33.10
2023-02-09T04:47:16.707Z,33.60
2023-02-09T04:49:44.763Z,34.60
2023-02-09T04:52:13.146Z,32.80
2023-02-09T04:54:41.119Z,32.70
2023-02-09T04:57:28.031Z,32.20
2023-02-09T04:59:56.230Z,33.80
2023-02-09T05:02:24.384Z,31.40
2023-02-09T05:04:52.549Z,31.20
2023-02-09T05:07:20.923Z,31.40
2023-02-09T05:09:49.197Z,31.40
2023-02-09T05:12:17.174Z,30.60
2023-02-09T05:14:45.138Z,30.30
2023-02-09T05:17:13.287Z,31.60
2023-02-09T05:19:41.383Z,29.00
2023-02-09T05:22:09.317Z,31.00
2023-02-09T05:24:37.184Z,28.90
2023-02-09T05:27:05.303Z,29.10
2023-02-09T05:29:33.261Z,28.50
2023-02-09T05:32:01.255Z,27.60
2023-02-09T05:34:29.309Z,26.30
2023-02-09T05:36:57.268Z,28.50
2023-02-09T05:39:25.213Z,28.20
2023-02-09T05:42:12.049Z,28.00
2023-02-09T05:44:40.118Z,28.40
2023-02-09T05:47:08.189Z,27.90
2023-02-09T05:49:36.258Z,28.60
2023-02-09T05:52:04.740Z,29.30
2023-02-09T05:54:32.825Z,29.50
2023-02-09T05:57:01.092Z,29.50
2023-02-09T05:59:29.158Z,29.40
2023-02-09T06:01:57.660Z,30.10
2023-02-09T06:04:26.254Z,28.90
2023-02-09T06:06:54.800Z,30.90
2023-02-09T06:09:22.873Z,29.60
2023-02-09T06:11:50.952Z,29.90
2023-02-09T06:14:19.531Z,29.50
2023-02-09T06:16:47.449Z,31.40
2023-02-09T06:19:17.135Z,30.40
2023-02-09T06:21:45.584Z,29.70
2023-02-09T06:24:13.964Z,31.70
2023-02-09T06:26:42.357Z,31.10
2023-02-09T06:29:10.386Z,31.30
2023-02-09T06:31:38.843Z,29.60
2023-02-09T06:34:06.801Z,33.70
2023-02-09T06:36:34.933Z,32.40
2023-02-09T06:39:06.538Z,30.80
2023-02-09T06:41:35.279Z,32.40
2023-02-09T06:44:03.999Z,31.70
2023-02-09T06:46:32.162Z,32.20
2023-02-09T06:49:00.234Z,31.70
2023-02-09T06:51:28.283Z,31.90
2023-02-09T06:53:56.265Z,34.00
2023-02-09T06:56:24.502Z,31.20
2023-02-09T06:58:53.207Z,31.80
2023-02-09T07:01:21.426Z,32.20
2023-02-09T07:03:49.654Z,32.50
2023-02-09T07:06:18.855Z,32.70
2023-02-09T07:08:47.072Z,31.80
2023-02-09T07:11:16.153Z,32.00
2023-02-09T07:13:44.616Z,31.20
2023-02-09T07:16:13.472Z,31.20
2023-02-09T07:18:41.770Z,30.40
2023-02-09T07:21:11.480Z,30.00
2023-02-09T07:23:39.850Z,30.00
2023-02-09T07:57:05.286Z,24.80
2023-02-09T07:59:33.609Z,25.00
2023-02-09T08:02:01.728Z,25.10
2023-02-09T08:04:29.760Z,23.90
2023-02-09T08:06:57.881Z,24.50
2023-02-09T08:09:26.152Z,25.60
2023-02-09T08:11:58.860Z,25.10
2023-02-09T08:14:39.697Z,23.40
2023-02-09T08:17:20.641Z,24.90
2023-02-09T08:20:12.463Z,25.00
2023-02-09T08:22:45.304Z,23.80
2023-02-09T08:25:16.310Z,25.00
2023-02-09T08:27:44.919Z,24.10
2023-02-09T08:30:15.379Z,24.30
2023-02-09T08:32:43.900Z,25.60
2023-02-09T08:35:15.321Z,24.70
2023-02-09T08:37:43.464Z,23.70
2023-02-09T08:40:12.589Z,23.70
2023-02-09T08:42:42.486Z,23.60
2023-02-09T08:45:12.635Z,24.10
2023-02-09T08:47:40.800Z,24.40
2023-02-09T08:50:11.218Z,24.20
2023-02-09T08:52:39.411Z,24.20
2023-02-09T08:55:07.670Z,24.70
2023-02-09T08:57:43.853Z,23.60
2023-02-09T09:00:14.090Z,24.20
2023-02-09T09:02:42.173Z,22.90
2023-02-09T09:05:10.584Z,25.80
2023-02-09T09:07:38.820Z,23.20
2023-02-09T09:10:08.997Z,22.80
2023-02-09T09:12:37.873Z,23.70
2023-02-09T09:15:06.628Z,24.90
2023-02-09T09:17:34.724Z,23.60
2023-02-09T09:20:03.748Z,23.10
2023-02-09T09:22:31.854Z,24.20
2023-02-09T09:24:59.963Z,22.80
2023-02-09T09:27:28.514Z,24.00
2023-02-09T09:29:56.577Z,24.00
2023-02-09T09:32:25.360Z,24.20
2023-02-09T09:34:59.020Z,25.20
2023-02-09T09:37:27.617Z,24.50
2023-02-09T09:39:55.633Z,25.30
2023-02-09T09:42:30.758Z,25.40
2023-02-09T09:44:59.215Z,24.80
2023-02-09T09:47:36.747Z,25.80
2023-02-09T09:50:21.607Z,25.90
2023-02-09T09:53:01.085Z,24.60
2023-02-09T09:55:32.183Z,26.80
2023-02-09T09:58:05.521Z,25.50
2023-02-09T10:00:40.075Z,25.90
2023-02-09T10:03:17.301Z,26.40
2023-02-09T10:05:49.455Z,27.20
2023-02-09T10:08:35.832Z,26.50
2023-02-09T10:11:11.573Z,26.20
2023-02-09T10:13:48.075Z,25.20
2023-02-09T10:19:32.911Z,25.50
2023-02-09T10:22:01.172Z,26.00
2023-02-09T10:24:32.187Z,27.40
2023-02-09T10:27:13.841Z,27.00
2023-02-09T10:29:42.193Z,26.80
2023-02-09T10:32:16.188Z,27.50
2023-02-09T10:34:57.110Z,27.30
2023-02-09T10:37:36.107Z,25.00
2023-02-09T10:40:14.323Z,26.00
2023-02-09T10:42:56.976Z,26.70
2023-02-09T10:45:33.215Z,27.60
2023-02-09T10:48:17.021Z,25.50
2023-02-09T10:51:00.816Z,25.60
2023-02-09T10:53:33.658Z,27.00
2023-02-09T10:56:21.550Z,26.50
2023-02-09T10:58:53.409Z,24.70
2023-02-09T11:01:32.078Z,26.00
2023-02-09T11:04:18.304Z,26.20
2023-02-09T11:06:57.716Z,24.70
2023-02-09T11:09:35.204Z,26.00
2023-02-09T11:12:03.507Z,26.50
2023-02-09T11:14:31.983Z,27.20
2023-02-09T11:17:15.944Z,26.30
2023-02-09T11:20:17.329Z,26.60
2023-02-09T11:23:13.402Z,27.10
2023-02-09T11:25:50.516Z,26.10
2023-02-09T11:28:46.712Z,27.60
2023-02-09T11:31:36.848Z,25.30
2023-02-09T11:34:25.399Z,26.30
2023-02-09T11:37:16.448Z,27.60
2023-02-09T11:39:57.852Z,27.40
2023-02-09T11:42:44.611Z,25.80
2023-02-09T11:45:34.315Z,26.00
2023-02-09T11:48:24.669Z,25.40
2023-02-09T11:51:22.519Z,25.30
2023-02-09T11:54:18.446Z,26.00
2023-02-09T11:56:50.975Z,23.40
2023-02-09T11:59:34.386Z,25.10
2023-02-09T12:02:14.355Z,24.00
2023-02-09T12:04:53.567Z,24.20
2023-02-09T12:07:28.268Z,25.70
2023-02-09T12:10:34.205Z,25.40
2023-02-09T12:13:21.068Z,23.30
2023-02-09T12:15:53.327Z,24.60
2023-02-09T12:18:24.292Z,23.90
2023-02-09T12:20:58.248Z,24.50
2023-02-09T12:23:35.886Z,22.40
2023-02-09T12:26:16.291Z,24.00
2023-02-09T12:29:03.655Z,24.00
2023-02-09T12:32:03.773Z,24.20
2023-02-09T12:34:53.141Z,25.40
2023-02-09T12:37:30.500Z,24.70
2023-02-09T12:40:07.791Z,24.80
2023-02-09T12:43:03.686Z,25.30
2023-02-09T12:45:40.471Z,24.10
2023-02-09T12:48:08.594Z,25.30
2023-02-09T12:50:42.841Z,26.50
2023-02-09T12:53:26.938Z,26.40
2023-02-09T12:56:07.273Z,25.20
2023-02-09T12:58:45.776Z,25.10
2023-02-09T13:01:15.309Z,25.80
2023-02-09T13:04:01.227Z,24.30
2023-02-09T13:06:40.669Z,24.80
2023-02-09T13:09:15.600Z,25.00
2023-02-09T13:11:49.913Z,25.60
2023-02-09T13:14:22.467Z,26.40
2023-02-09T13:17:08.937Z,25.10
2023-02-09T13:19:57.787Z,25.20
2023-02-09T13:22:44.345Z,24.80
2023-02-09T13:25:22.158Z,25.70
2023-02-09T13:27:51.028Z,26.60
2023-02-09T13:30:29.956Z,26.20
2023-02-09T13:33:20.556Z,27.00
2023-02-09T13:36:06.915Z,27.00
2023-02-09T13:38:40.670Z,26.20
2023-02-09T13:41:32.085Z,26.80
2023-02-09T13:44:00.172Z,25.20
2023-02-09T13:46:34.188Z,26.20
2023-02-09T13:49:15.604Z,23.70
2023-02-09T13:51:43.771Z,25.20
2023-02-09T13:54:20.318Z,25.60
2023-02-09T13:56:48.521Z,25.20
2023-02-09T13:59:17.701Z,26.30
2023-02-09T14:01:46.552Z,25.00
2023-02-09T14:04:20.074Z,26.00
2023-02-09T14:07:09.719Z,26.00
2023-02-09T14:09:48.948Z,27.90
2023-02-09T14:12:45.538Z,26.40
2023-02-09T14:15:33.858Z,27.30
2023-02-09T14:18:02.018Z,26.40
2023-02-09T14:20:30.480Z,24.80
2023-02-09T14:23:01.528Z,26.00
2023-02-09T14:25:31.499Z,26.70
2023-02-09T14:28:00.106Z,26.20
2023-02-09T14:30:32.929Z,27.30
2023-02-09T14:33:06.242Z,26.00
2023-02-09T14:35:41.162Z,24.90
2023-02-09T14:38:37.942Z,27.20
2023-02-09T14:41:29.364Z,26.10
2023-02-09T14:44:06.697Z,25.10
2023-02-09T14:47:26.788Z,25.30
2023-02-09T14:49:57.205Z,26.80
2023-02-09T14:52:31.722Z,27.20
2023-02-09T14:55:05.044Z,26.80
2023-02-09T14:57:36.403Z,28.20
2023-02-09T15:00:23.070Z,28.30
2023-02-09T15:02:53.027Z,28.10
2023-02-09T15:05:23.010Z,28.40
2023-02-09T15:08:05.829Z,28.60
2023-02-09T15:10:45.586Z,29.60
2023-02-09T15:13:15.405Z,30.00
2023-02-09T15:15:44.318Z,32.50
2023-02-09T15:18:20.086Z,31.40
2023-02-09T15:20:48.839Z,29.90
2023-02-09T15:23:17.359Z,29.10
2023-02-09T15:25:45.779Z,29.20
2023-02-09T15:28:28.766Z,30.10
2023-02-09T15:30:58.678Z,29.70
2023-02-09T15:33:28.589Z,31.40
2023-02-09T15:35:58.986Z,29.00
2023-02-09T15:38:28.070Z,30.10
2023-02-09T15:41:14.615Z,28.00
2023-02-09T15:44:01.486Z,32.30
2023-02-09T15:46:48.355Z,31.40
2023-02-09T15:49:16.599Z,31.10
2023-02-09T15:51:44.780Z,32.10
2023-02-09T15:54:18.772Z,30.00
2023-02-09T15:56:46.964Z,30.20
2023-02-09T15:59:23.667Z,29.10
2023-02-09T16:01:52.042Z,31.40
2023-02-09T16:04:20.185Z,29.90
2023-02-09T16:06:53.595Z,28.90
2023-02-09T16:09:26.702Z,29.00
2023-02-09T16:11:55.532Z,28.70
2023-02-09T16:14:26.044Z,27.70
2023-02-09T16:16:54.187Z,26.20
2023-02-09T16:19:22.362Z,27.80
2023-02-09T16:21:56.395Z,27.20
2023-02-09T16:24:39.791Z,26.40
2023-02-09T16:27:15.374Z,26.90
2023-02-09T16:29:43.685Z,26.70
2023-02-09T16:32:20.104Z,27.00
2023-02-09T16:34:48.712Z,25.70
2023-02-09T16:37:20.221Z,26.30
2023-02-09T16:39:48.285Z,26.20
2023-02-09T16:42:16.828Z,25.50
2023-02-09T16:44:44.869Z,26.60
2023-02-09T16:47:20.029Z,26.30
2023-02-09T16:50:34.550Z,23.80
2023-02-09T16:53:13.611Z,24.70
2023-02-09T16:55:42.201Z,23.30
2023-02-09T16:58:14.776Z,23.00
2023-02-09T17:00:44.836Z,24.00
2023-02-09T17:03:19.979Z,23.70
2023-02-09T17:05:51.484Z,24.80
2023-02-09T17:08:25.783Z,23.70
2023-02-09T17:10:56.204Z,25.60
2023-02-09T17:13:24.661Z,23.70
2023-02-09T17:15:56.754Z,26.00
2023-02-09T17:18:32.513Z,23.30
2023-02-09T17:21:06.576Z,25.30
2023-02-09T17:23:37.353Z,25.60
2023-02-09T17:26:05.890Z,24.50
2023-02-09T17:28:34.244Z,25.80
2023-02-09T17:31:09.650Z,25.20
2023-02-09T17:33:39.085Z,24.70
2023-02-09T17:36:25.588Z,25.20
2023-02-09T17:38:57.092Z,22.80
2023-02-09T17:41:37.335Z,23.50
2023-02-09T17:44:24.064Z,24.20
2023-02-09T17:47:00.097Z,24.50
2023-02-09T17:49:28.260Z,21.90
2023-02-09T17:51:56.376Z,24.10
2023-02-09T17:54:25.086Z,22.10
2023-02-09T17:56:53.120Z,23.40
2023-02-09T17:59:21.438Z,22.20
2023-02-09T18:01:55.181Z,21.80
2023-02-09T18:04:26.947Z,21.70
2023-02-09T18:06:57.510Z,22.90
2023-02-09T18:09:26.089Z,22.40
2023-02-09T18:12:07.867Z,20.30
2023-02-09T18:14:36.798Z,20.90
2023-02-09T18:17:04.967Z,21.50
2023-02-09T18:19:33.206Z,21.50
2023-02-09T18:22:02.104Z,21.00
2023-02-09T18:24:33.127Z,19.50
2023-02-09T18:27:01.181Z,18.90
2023-02-09T18:29:30.176Z,17.70
2023-02-09T18:32:00.191Z,17.50
2023-02-09T18:34:29.250Z,16.70
2023-02-09T18:36:57.383Z,18.60
2023-02-09T18:39:25.433Z,18.10
2023-02-09T18:41:56.432Z,16.80
2023-02-09T18:44:29.304Z,17.50
2023-02-09T18:47:00.613Z,17.70
2023-02-09T18:49:29.746Z,17.20
2023-02-09T18:51:59.375Z,17.50
2023-02-09T18:54:29.065Z,16.40
2023-02-09T18:56:57.746Z,16.10
2023-02-09T18:59:30.971Z,16.50
2023-02-09T19:02:00.970Z,16.30
2023-02-09T19:04:29.128Z,16.40
2023-02-09T19:06:57.318Z,16.30
2023-02-09T19:09:25.444Z,15.00
2023-02-09T19:11:53.604Z,14.90
2023-02-09T19:14:37.143Z,15.20
2023-02-09T19:17:07.088Z,16.00
2023-02-09T19:19:35.289Z,14.00
2023-02-09T19:22:03.451Z,13.50
2023-02-09T19:24:31.795Z,14.40
2023-02-09T19:26:59.871Z,14.00
2023-02-09T19:29:29.110Z,14.40
2023-02-09T19:31:57.349Z,13.60
2023-02-09T19:34:30.411Z,14.00
2023-02-09T19:36:58.918Z,13.00
2023-02-09T19:39:27.091Z,14.00
2023-02-09T19:41:55.308Z,13.20
2023-02-09T19:44:23.594Z,13.40
2023-02-09T19:46:51.978Z,13.90
2023-02-09T19:49:20.602Z,13.60
2023-02-09T19:51:49.414Z,13.00
2023-02-09T19:54:17.505Z,12.80
2023-02-09T19:56:45.770Z,12.20
2023-02-09T19:59:14.131Z,12.80
2023-02-09T20:01:43.536Z,12.80
2023-02-09T20:04:11.812Z,13.50
2023-02-09T20:06:39.975Z,11.80
2023-02-09T20:09:08.656Z,13.10
2023-02-09T20:11:36.778Z,12.70
2023-02-09T20:14:05.701Z,13.10
2023-02-09T20:16:33.856Z,12.30
2023-02-09T20:19:02.424Z,12.40
2023-02-09T20:21:30.652Z,11.90
2023-02-09T20:23:58.703Z,12.60
2023-02-09T20:26:29.881Z,11.60
2023-02-09T20:28:59.126Z,11.80
2023-02-09T20:31:30.038Z,11.80
2023-02-09T20:33:58.566Z,11.40
2023-02-09T20:36:26.680Z,12.00
2023-02-09T20:38:54.860Z,11.20
2023-02-09T20:41:22.920Z,10.50
2023-02-09T20:44:09.452Z,12.20
2023-02-09T20:46:56.094Z,10.90
2023-02-09T20:49:31.196Z,10.70
2023-02-09T20:51:59.338Z,11.10
2023-02-09T20:54:27.708Z,10.40
2023-02-09T20:56:55.747Z,10.60
2023-02-09T20:59:26.762Z,11.20
2023-02-09T21:01:55.050Z,11.00
2023-02-09T21:04:26.591Z,10.40
2023-02-09T21:06:54.703Z,11.10
2023-02-09T21:09:26.542Z,10.80
2023-02-09T21:11:56.214Z,10.90
2023-02-09T21:14:39.988Z,11.00
2023-02-09T21:17:09.543Z,10.20
2023-02-09T21:19:38.037Z,11.00
2023-02-09T21:22:06.807Z,10.50
2023-02-09T21:24:36.820Z,11.40
2023-02-09T21:27:06.667Z,10.10
2023-02-09T21:29:35.584Z,10.80
2023-02-09T21:32:05.580Z,10.40
2023-02-09T21:34:33.690Z,12.10
2023-02-09T21:37:03.766Z,11.40
2023-02-09T21:39:31.801Z,12.60
2023-02-09T21:42:18.442Z,11.80
2023-02-09T21:44:46.741Z,12.20
2023-02-09T21:47:14.837Z,12.10
2023-02-09T21:49:43.153Z,11.20
2023-02-09T21:52:11.487Z,11.90
2023-02-09T21:54:39.896Z,11.50
2023-02-09T21:57:07.939Z,11.30
2023-02-09T21:59:35.977Z,11.40
2023-02-09T22:02:04.284Z,12.00
2023-02-09T22:04:32.474Z,10.80
2023-02-09T22:07:00.689Z,11.10
2023-02-09T22:09:29.006Z,11.40
2023-02-09T22:11:57.107Z,11.30
2023-02-09T22:14:25.156Z,12.10
2023-02-09T22:16:53.293Z,11.50
2023-02-09T22:19:21.724Z,12.20
2023-02-09T22:21:51.129Z,12.80
2023-02-09T22:24:19.418Z,12.10
2023-02-09T22:26:47.789Z,11.50
2023-02-09T22:29:16.878Z,12.20
2023-02-09T22:31:45.549Z,10.60
2023-02-09T22:34:13.711Z,12.70
2023-02-09T22:36:41.728Z,12.60
2023-02-09T22:39:10.019Z,11.70
2023-02-09T22:41:38.336Z,12.70
2023-02-09T22:44:10.101Z,11.50
2023-02-09T22:46:40.113Z,11.70
2023-02-09T22:49:12.674Z,12.40
2023-02-09T22:51:40.900Z,12.70
2023-02-09T22:54:09.564Z,12.40
2023-02-09T22:56:37.613Z,11.80
2023-02-09T22:59:06.402Z,12.70
2023-02-09T23:01:34.830Z,12.40
2023-02-09T23:04:02.947Z,12.50
2023-02-09T23:06:31.073Z,13.20
2023-02-09T23:09:02.625Z,12.40
2023-02-09T23:11:31.866Z,12.30
2023-02-09T23:14:08.984Z,12.30
2023-02-09T23:16:40.203Z,13.30
2023-02-09T23:19:12.970Z,12.40
2023-02-09T23:21:43.694Z,13.50
2023-02-09T23:24:13.035Z,13.70
2023-02-09T23:26:41.176Z,14.20
2023-02-09T23:29:12.632Z,13.50
2023-02-09T23:31:41.239Z,14.30
2023-02-09T23:34:19.835Z,14.30
2023-02-09T23:36:48.415Z,13.70
2023-02-09T23:39:19.178Z,13.80
2023-02-09T23:41:47.331Z,13.40
2023-02-09T23:44:15.591Z,13.10
2023-02-09T23:46:44.837Z,14.20
2023-02-09T23:49:13.060Z,14.00
2023-02-09T23:51:41.198Z,13.50
2023-02-09T23:54:10.467Z,14.00
2023-02-09T23:56:39.926Z,14.70
2023-02-09T23:59:12.930Z,13.60
